createdAt,value
2023-05-06T00:00:57.975Z,1.83
2023-05-06T00:03:24.980Z,0.90
2023-05-06T00:05:52.185Z,0.98
2023-05-06T00:08:22.036Z,1.10
2023-05-06T00:10:49.090Z,1.40
2023-05-06T00:13:17.978Z,1.10
2023-05-06T00:15:45.138Z,0.95
2023-05-06T00:18:15.124Z,1.08
2023-05-06T00:20:42.502Z,1.20
2023-05-06T00:23:10.702Z,1.42
2023-05-06T00:25:37.620Z,1.33
2023-05-06T00:28:12.651Z,1.38
2023-05-06T00:33:23.722Z,1.40
2023-05-06T00:35:52.753Z,1.42
2023-05-06T00:42:02.440Z,1.20
2023-05-06T00:44:31.409Z,1.63
2023-05-06T00:47:02.006Z,1.13
2023-05-06T00:49:31.206Z,1.17
2023-05-06T00:51:58.269Z,1.40
2023-05-06T00:54:26.745Z,1.38
2023-05-06T00:56:56.804Z,1.75
2023-05-06T00:59:23.803Z,1.30
2023-05-06T01:01:52.254Z,1.38
2023-05-06T01:04:22.561Z,1.45
2023-05-06T01:07:20.605Z,1.23
2023-05-06T01:10:08.245Z,1.75
2023-05-06T01:13:06.257Z,1.35
2023-05-06T01:15:45.634Z,1.30
2023-05-06T01:18:20.239Z,1.40
2023-05-06T01:20:51.857Z,2.00
2023-05-06T01:23:28.067Z,1.20
2023-05-06T01:28:38.260Z,2.08
2023-05-06T01:31:13.759Z,1.70
2023-05-06T01:34:08.214Z,1.75
2023-05-06T01:36:46.485Z,1.80
2023-05-06T01:39:16.716Z,1.88
2023-05-06T01:41:43.799Z,1.35
2023-05-06T01:44:11.420Z,1.17
2023-05-06T01:46:38.441Z,1.73
2023-05-06T01:49:06.630Z,1.50
2023-05-06T01:51:36.911Z,1.50
2023-05-06T01:54:06.576Z,1.52
2023-05-06T01:56:33.544Z,1.95
2023-05-06T01:59:00.479Z,1.30
2023-05-06T02:01:27.426Z,2.78
2023-05-06T02:03:54.615Z,1.55
2023-05-06T02:06:26.259Z,1.42
2023-05-06T02:08:53.369Z,1.67
2023-05-06T02:11:20.619Z,1.60
2023-05-06T02:13:50.020Z,1.30
2023-05-06T02:16:16.951Z,1.15
2023-05-06T02:18:44.017Z,1.50
2023-05-06T02:21:16.080Z,1.60
2023-05-06T02:23:45.704Z,1.42
2023-05-06T02:26:12.765Z,1.88
2023-05-06T02:28:42.779Z,1.33
2023-05-06T02:31:11.716Z,1.80
2023-05-06T02:33:42.895Z,1.67
2023-05-06T02:36:09.981Z,1.55
2023-05-06T02:38:36.979Z,1.50
2023-05-06T02:41:04.226Z,2.00
2023-05-06T02:43:31.183Z,1.77
2023-05-06T02:45:58.190Z,1.73
2023-05-06T02:48:25.269Z,2.05
2023-05-06T02:50:52.363Z,1.20
2023-05-06T02:53:19.371Z,1.70
2023-05-06T02:59:20.044Z,1.77
2023-05-06T03:02:02.173Z,1.60
2023-05-06T03:04:54.690Z,1.92
2023-05-06T03:07:25.106Z,1.77
2023-05-06T09:37:26.365Z,1.13
2023-05-06T09:39:59.768Z,1.20
2023-05-06T09:42:27.947Z,1.00
2023-05-06T09:45:03.269Z,0.80
2023-05-06T09:47:38.399Z,1.10
2023-05-06T09:50:05.975Z,0.98
2023-05-06T09:52:33.041Z,1.45
2023-05-06T09:55:00.273Z,0.80
2023-05-06T09:57:53.303Z,0.82
2023-05-06T10:00:26.992Z,1.10
2023-05-06T10:02:54.087Z,1.17
2023-05-06T10:05:25.617Z,0.82
2023-05-06T10:07:56.477Z,0.90
2023-05-06T10:10:25.375Z,0.90
2023-05-06T10:12:52.811Z,0.90
2023-05-06T10:15:19.876Z,1.00
2023-05-06T10:17:48.918Z,0.80
2023-05-06T10:20:15.930Z,0.80
2023-05-06T10:22:52.001Z,0.90
2023-05-06T10:25:31.056Z,0.80
2023-05-06T10:27:58.279Z,0.82
2023-05-06T10:30:25.919Z,0.80
2023-05-06T10:32:55.238Z,0.70
2023-05-06T10:35:41.863Z,0.90
2023-05-06T10:38:26.102Z,0.75
2023-05-06T10:40:53.172Z,0.60
2023-05-06T10:43:32.464Z,1.48
2023-05-06T10:46:10.077Z,0.60
2023-05-06T10:48:39.905Z,0.70
2023-05-06T10:51:21.637Z,0.70
2023-05-06T10:54:04.783Z,0.50
2023-05-06T10:56:36.099Z,0.70
2023-05-06T10:59:12.262Z,0.70
2023-05-06T11:01:43.815Z,0.75
2023-05-06T11:04:18.558Z,0.70
2023-05-06T11:10:11.599Z,0.60
2023-05-06T11:12:55.835Z,0.70
2023-05-06T11:18:29.780Z,0.77
2023-05-06T11:21:08.238Z,0.60
2023-05-06T11:24:09.477Z,0.70
2023-05-06T11:26:39.191Z,0.50
2023-05-06T11:29:06.469Z,0.65
2023-05-06T11:31:39.188Z,0.88
2023-05-06T11:34:08.961Z,0.60
2023-05-06T11:36:48.395Z,0.60
2023-05-06T11:39:15.942Z,0.55
2023-05-06T11:41:43.097Z,0.80
2023-05-06T11:44:12.184Z,0.45
2023-05-06T11:46:39.707Z,1.30
2023-05-06T11:49:06.806Z,0.80
2023-05-06T11:51:33.745Z,0.70
2023-05-06T11:54:08.382Z,0.85
2023-05-06T11:56:49.043Z,0.43
2023-05-06T11:59:16.278Z,0.50
2023-05-06T12:01:43.812Z,0.40
2023-05-06T12:04:11.562Z,0.50
2023-05-06T12:06:39.166Z,0.50
2023-05-06T12:09:07.631Z,0.70
2023-05-06T12:11:35.510Z,0.60
2023-05-06T12:14:03.490Z,0.70
2023-05-06T12:16:30.626Z,0.60
2023-05-06T12:18:57.860Z,0.47
2023-05-06T12:21:25.087Z,0.50
2023-05-06T12:23:57.560Z,0.40
2023-05-06T12:26:27.437Z,0.60
2023-05-06T12:29:09.244Z,0.57
2023-05-06T12:31:36.717Z,0.50
2023-05-06T12:34:04.248Z,0.50
2023-05-06T12:36:34.053Z,0.73
2023-05-06T12:39:09.540Z,0.90
2023-05-06T12:41:44.092Z,0.90
2023-05-06T12:44:33.550Z,0.60
2023-05-06T12:47:09.068Z,0.50
2023-05-06T12:50:08.604Z,0.40
2023-05-06T12:52:43.295Z,0.30
2023-05-06T12:55:10.125Z,0.30
2023-05-06T12:57:40.052Z,0.47
2023-05-06T13:00:10.437Z,0.30
2023-05-06T13:02:55.860Z,1.10
2023-05-06T13:05:29.311Z,0.50
2023-05-06T13:07:56.977Z,0.40
2023-05-06T13:10:44.559Z,0.38
2023-05-06T13:13:16.960Z,0.30
2023-05-06T13:15:46.833Z,0.30
2023-05-06T13:18:19.041Z,0.20
2023-05-06T13:20:46.165Z,0.30
2023-05-06T13:23:13.154Z,0.28
2023-05-06T13:25:56.339Z,0.40
2023-05-06T13:28:27.860Z,0.93
2023-05-06T13:30:54.878Z,0.40
2023-05-06T13:33:24.866Z,0.50
2023-05-06T13:35:54.517Z,0.30
2023-05-06T13:38:22.390Z,0.38
2023-05-06T13:41:08.058Z,0.30
2023-05-06T13:43:38.327Z,0.50
2023-05-06T13:46:05.661Z,0.38
2023-05-06T13:49:01.669Z,0.30
2023-05-06T13:51:30.932Z,0.30
2023-05-06T13:54:07.537Z,0.25
2023-05-06T13:56:36.402Z,0.20
2023-05-06T13:59:03.329Z,0.40
2023-05-06T14:01:30.543Z,0.30
2023-05-06T14:03:57.416Z,0.30
2023-05-06T14:06:24.472Z,0.30
2023-05-06T14:08:54.571Z,0.40
2023-05-06T14:11:24.632Z,0.40
2023-05-06T14:13:51.566Z,0.50
2023-05-06T14:16:18.879Z,0.40
2023-05-06T14:18:46.063Z,0.50
2023-05-06T14:21:15.860Z,0.57
2023-05-06T14:23:42.795Z,0.38
2023-05-06T14:26:09.625Z,0.20
2023-05-06T14:28:37.585Z,0.60
2023-05-06T14:31:04.690Z,0.40
2023-05-06T14:33:31.548Z,0.20
2023-05-06T14:36:03.590Z,0.22
2023-05-06T14:38:31.125Z,0.40
2023-05-06T14:40:59.400Z,0.47
2023-05-06T14:43:26.457Z,0.45
2023-05-06T14:45:54.162Z,0.40
2023-05-06T14:48:21.191Z,0.57
2023-05-06T14:50:48.039Z,0.70
2023-05-06T14:53:15.153Z,0.50
2023-05-06T14:55:42.193Z,0.50
2023-05-06T14:58:09.540Z,0.60
2023-05-06T15:00:36.488Z,0.50
2023-05-06T15:03:03.574Z,0.50
2023-05-06T15:05:30.598Z,0.68
2023-05-06T15:07:57.565Z,0.70
2023-05-06T15:10:24.696Z,0.90
2023-05-06T15:12:51.657Z,1.02
2023-05-06T15:15:22.998Z,0.82
2023-05-06T15:17:52.520Z,0.47
2023-05-06T15:20:19.329Z,0.73
2023-05-06T15:22:46.497Z,0.70
2023-05-06T15:25:22.530Z,0.60
2023-05-06T15:30:34.064Z,0.70
2023-05-06T15:33:02.018Z,0.60
2023-05-06T15:35:30.828Z,1.00
2023-05-06T15:37:58.993Z,0.60
2023-05-06T15:40:26.945Z,0.63
2023-05-06T15:42:53.775Z,0.68
2023-05-06T15:45:23.800Z,0.70
2023-05-06T15:47:50.701Z,1.00
2023-05-06T15:50:32.811Z,0.70
2023-05-06T15:53:01.389Z,0.70
2023-05-06T15:55:35.106Z,0.90
2023-05-06T15:58:10.562Z,0.70
2023-05-06T16:00:37.659Z,0.90
2023-05-06T16:03:04.716Z,0.70
2023-05-06T16:05:32.054Z,0.57
2023-05-06T16:07:59.029Z,0.52
2023-05-06T16:10:27.769Z,0.80
2023-05-06T16:12:54.860Z,0.70
2023-05-06T16:15:22.308Z,0.82
2023-05-06T16:17:58.644Z,0.65
2023-05-06T16:20:25.688Z,0.70
2023-05-06T16:22:53.091Z,1.05
2023-05-06T16:25:20.127Z,1.23
2023-05-06T16:27:49.816Z,0.60
2023-05-06T16:30:20.460Z,0.50
2023-05-06T16:32:47.755Z,0.60
2023-05-06T16:35:26.309Z,1.08
2023-05-06T16:37:57.998Z,0.80
2023-05-06T16:40:26.054Z,0.73
2023-05-06T16:42:56.349Z,1.08
2023-05-06T16:45:23.515Z,0.80
2023-05-06T16:47:50.784Z,1.17
2023-05-06T16:50:17.807Z,1.23
2023-05-06T16:52:44.863Z,1.10
2023-05-06T16:55:11.784Z,0.88
2023-05-06T16:57:38.836Z,1.08
2023-05-06T17:00:08.549Z,0.98
2023-05-06T17:02:39.067Z,1.30
2023-05-06T17:05:07.776Z,1.40
2023-05-06T17:07:41.586Z,1.40
2023-05-06T17:10:09.172Z,1.77
2023-05-06T17:12:36.451Z,1.52
2023-05-06T17:15:04.119Z,2.10
2023-05-06T17:17:33.840Z,2.45
2023-05-06T17:20:02.328Z,2.50
2023-05-06T17:22:29.318Z,2.08
2023-05-06T17:24:59.531Z,2.47
2023-05-06T17:27:30.892Z,2.45
2023-05-06T17:29:58.756Z,2.60
2023-05-06T17:32:26.272Z,2.25
2023-05-06T17:34:53.440Z,2.95
2023-05-06T17:37:20.600Z,2.75
2023-05-06T17:39:47.735Z,2.92
2023-05-06T17:42:14.903Z,3.20
2023-05-06T17:44:42.895Z,3.78
2023-05-06T17:47:33.082Z,3.28
2023-05-06T17:50:09.219Z,4.07
2023-05-06T17:52:36.372Z,3.50
2023-05-06T17:55:15.900Z,3.70
2023-05-06T17:57:47.372Z,4.60
2023-05-06T18:00:18.099Z,3.90
2023-05-06T18:02:45.475Z,3.72
2023-05-06T18:05:25.104Z,4.35
2023-05-06T18:07:52.430Z,3.88
2023-05-06T18:10:19.799Z,3.50
2023-05-06T18:13:07.467Z,4.47
2023-05-06T18:15:41.804Z,3.53
2023-05-06T18:20:53.395Z,4.53
2023-05-06T18:23:26.821Z,4.30
2023-05-06T18:25:54.077Z,4.25
2023-05-06T18:28:21.018Z,4.35
2023-05-06T18:30:51.276Z,4.40
2023-05-06T18:33:21.883Z,3.95
2023-05-06T18:35:48.958Z,4.40
2023-05-06T18:38:15.924Z,3.90
2023-05-06T18:40:46.758Z,5.00
2023-05-06T18:43:13.700Z,4.72
2023-05-06T18:45:41.975Z,4.28
2023-05-06T18:48:08.944Z,3.67
2023-05-06T18:50:36.910Z,3.90
2023-05-06T18:53:04.166Z,4.43
2023-05-06T18:55:31.295Z,3.95
2023-05-06T18:57:58.440Z,4.28
2023-05-06T19:00:39.450Z,4.05
2023-05-06T19:03:08.339Z,3.60
2023-05-06T19:05:40.168Z,3.35
2023-05-06T19:08:07.731Z,3.75
2023-05-06T19:10:34.980Z,3.80
2023-05-06T19:13:02.324Z,4.10
2023-05-06T19:15:29.483Z,4.25
2023-05-06T19:17:58.126Z,3.60
2023-05-06T19:20:25.024Z,3.42
2023-05-06T19:22:54.389Z,3.33
2023-05-06T19:25:21.636Z,3.22
2023-05-06T19:27:48.776Z,2.83
2023-05-06T19:30:15.863Z,4.15
2023-05-06T19:32:44.590Z,3.47
2023-05-06T19:35:12.066Z,3.28
2023-05-06T19:37:39.470Z,4.47
2023-05-06T19:40:10.472Z,3.20
2023-05-06T19:42:37.439Z,3.20
2023-05-06T19:45:08.435Z,3.05
2023-05-06T19:47:38.338Z,3.42
2023-05-06T19:50:06.279Z,4.70
2023-05-06T19:52:34.858Z,3.92
2023-05-06T19:55:07.309Z,3.50
2023-05-06T19:57:38.522Z,3.00
2023-05-06T20:00:18.396Z,2.88
2023-05-06T20:02:49.438Z,3.70
2023-05-06T20:05:31.553Z,3.42
2023-05-06T20:08:17.380Z,3.85
2023-05-06T20:12:01.219Z,3.90
2023-05-06T20:14:28.636Z,4.18
2023-05-06T20:20:11.469Z,4.15
2023-05-06T20:24:13.762Z,4.07
2023-05-06T20:26:41.422Z,3.92
2023-05-06T20:29:47.421Z,5.20
2023-05-06T20:32:14.527Z,5.03
2023-05-06T20:34:54.369Z,5.00
2023-05-06T20:40:12.077Z,5.05
2023-05-06T20:42:40.683Z,5.13
2023-05-06T20:45:08.310Z,5.88
2023-05-06T20:47:36.160Z,6.43
2023-05-06T20:50:03.278Z,6.28
2023-05-06T20:52:30.224Z,6.22
2023-05-06T20:54:59.528Z,6.68
2023-05-06T20:57:29.315Z,6.93
2023-05-06T20:59:59.209Z,6.40
2023-05-06T21:02:34.317Z,5.68
2023-05-06T21:05:08.264Z,5.43
2023-05-06T21:07:35.199Z,5.50
2023-05-06T21:10:03.309Z,5.53
2023-05-06T21:12:36.030Z,6.70
2023-05-06T21:15:06.273Z,5.78
2023-05-06T21:17:33.137Z,6.68
2023-05-06T21:20:03.649Z,8.43
2023-05-06T21:25:45.775Z,5.70
2023-05-06T21:28:16.279Z,5.95
2023-05-06T21:30:48.470Z,6.30
2023-05-06T21:33:15.288Z,6.35
2023-05-06T21:35:55.317Z,5.45
2023-05-06T21:38:27.638Z,5.72
2023-05-06T21:40:55.742Z,5.57
2023-05-06T21:43:46.039Z,6.38
2023-05-06T21:46:12.864Z,6.03
2023-05-06T21:49:06.872Z,7.35
2023-05-06T21:51:30.891Z,6.07
2023-05-06T21:54:07.155Z,6.25
2023-05-06T21:56:34.021Z,5.95
2023-05-06T21:59:09.594Z,7.07
2023-05-06T22:01:36.710Z,6.88
2023-05-06T22:04:17.266Z,6.20
2023-05-06T22:06:44.126Z,6.47
2023-05-06T22:09:19.805Z,6.70
2023-05-06T22:12:00.428Z,7.93
2023-05-06T22:18:11.769Z,8.52
2023-05-06T22:21:12.254Z,7.53
2023-05-06T22:26:45.383Z,7.78
2023-05-06T22:29:12.466Z,7.35
2023-05-06T22:31:45.980Z,7.20
2023-05-06T22:34:15.637Z,7.55
2023-05-06T22:36:58.201Z,8.43
2023-05-06T22:39:29.951Z,6.82
2023-05-06T22:42:00.068Z,7.78
2023-05-06T22:44:27.928Z,7.13
2023-05-06T22:46:57.496Z,6.20
2023-05-06T22:49:29.129Z,6.47
2023-05-06T22:51:56.618Z,8.02
2023-05-06T22:54:26.232Z,6.80
2023-05-06T22:56:55.597Z,7.35
2023-05-06T22:59:22.676Z,7.30
2023-05-06T23:01:49.674Z,7.22
2023-05-06T23:04:16.765Z,8.65
2023-05-06T23:06:44.495Z,7.82
2023-05-06T23:09:12.508Z,7.85
2023-05-06T23:11:40.144Z,8.13
2023-05-06T23:14:07.694Z,8.40
2023-05-06T23:16:34.737Z,7.95
2023-05-06T23:19:02.027Z,7.13
2023-05-06T23:21:31.628Z,5.20
2023-05-06T23:24:01.040Z,6.07
2023-05-06T23:26:28.363Z,5.20
2023-05-06T23:28:55.766Z,5.03
2023-05-06T23:31:22.575Z,4.13
2023-05-06T23:33:49.365Z,3.28
2023-05-06T23:36:16.642Z,3.92
2023-05-06T23:42:08.486Z,3.25
2023-05-06T23:44:35.570Z,2.95
2023-05-06T23:47:02.401Z,2.58
2023-05-06T23:49:29.460Z,2.90
2023-05-06T23:51:59.653Z,3.20
2023-05-06T23:54:27.166Z,2.97
2023-05-06T23:56:55.906Z,3.15
2023-05-06T23:59:22.920Z,3.08
